Wilmington, NC (28403)

2:00 PM EST on March 05, 2015 (GMT -0500)
Pine Valley | Change Station
CLOSE
Current Station
Personal Weather Station
Location: Wilmington, NC
Elevation: 49 ft
Nearby Weather Stations

Elev 49 ft 34.19 °N, 77.89 °W | Updated 35 seconds ago

Partly Cloudy
Partly Cloudy
75.8 °F
Feels Like 77 °F
N
4.0
Wind Variable Wind from SW

Today
High -- | Low -- °F
--% Chance of Precip.
Yesterday
High -- | Low -- °F
Precip. -- in
6:35 AM 6:10 PM
Full, 100% visible
Pressure 29.90 in
Visibility 10.0 miles
Clouds Clear
Heat Index 77 °F
Dew Point 66 °F
Humidity 73%
Rainfall in
Snow Depth Not available.
UV 6 out of 12
Pollen 7.00 out of 12
Air Quality Not available.
Flu Activity Not available.
METAR KILM 051853Z 21018G27KT 10SM CLR 24/17 A2990 RMK AO2 PK WND 22031/1834 SLP125 T02440172

More Conditions Fewer Conditions

Pressure 29.90 in
Visibility 10.0 miles
Clouds Clear
Heat Index 77 °F
Dew Point 66 °F
Humidity 73%
Rainfall in
Snow Depth Not available.
UV 6 out of 12
Pollen 7.00 out of 12
Air Quality Not available.
Flu Activity Not available.
METAR KILM 051853Z 21018G27KT 10SM CLR 24/17 A2990 RMK AO2 PK WND 22031/1834 SLP125 T02440172

More Conditions Fewer Conditions

10-Day Weather Forecast

Almanac

Astronomy

Mar. 05, 2015 Rise Set
Actual Time
Civil Twilight
Nautical Twilight
Astronomical Twilight
Moon
Length of Visible Light
Length of Day
Tomorrow will be .
, % of the Moon is Illuminated

Today's Extremes

State Highs State Lows

Community

WunderPhotos

Upload Photos

1,802,914 photos uploaded!

WunderBlogs® & News

Nearby

Air Quality

  Air Quality AQ Index Pollutant
Not available.

Snow Depth

Station Depth Elevation

Earthquake Activity

City Distance Mag. Time & Date
Minimum magnitude displayed is 2.5.

Coastal Water Temperatures

Place Temperature

Nearby Weather Stations